Terminal Aerodrome Forecast
Issued by NWS Missoula, MT

Home | Current Version | Previous Version | Text Only | Print | Product List | Glossary On
Versions: 1 2 3 4 5 6 7 8 9 10 11 12 13 14 15 16 17 18 19 20
000
FTUS45 KMSO 221130
TAFMSO
TAF
KMSO 221130Z 2212/2312 32008KT P6SM VCSH SCT050 BKN060
     FM221800 32010KT P6SM BKN070
     FM230100 VRB03KT P6SM SCT070
     FM230900 00000KT P6SM VCFG FEW001 SCT050=

USA.gov is the U.S. government's official web portal to all federal, state and local government web resources and services.